createdAt,value
2023-07-20T00:00:18.128Z,82.40
2023-07-20T00:01:21.354Z,82.43
2023-07-20T00:03:30.082Z,82.35
2023-07-20T00:04:33.859Z,82.40
2023-07-20T00:06:42.386Z,82.46
2023-07-20T00:07:45.891Z,82.34
2023-07-20T00:09:54.444Z,82.41
2023-07-20T00:10:58.131Z,82.41
2023-07-20T00:13:06.139Z,82.25
2023-07-20T00:14:09.403Z,82.22
2023-07-20T00:16:17.941Z,82.49
2023-07-20T00:17:21.727Z,82.65
2023-07-20T00:19:30.565Z,82.76
2023-07-20T00:20:34.082Z,82.98
2023-07-20T00:22:42.377Z,82.93
2023-07-20T00:23:46.252Z,83.02
2023-07-20T00:25:54.499Z,83.20
2023-07-20T00:26:58.150Z,83.34
2023-07-20T00:29:06.544Z,83.72
2023-07-20T00:30:09.974Z,83.86
2023-07-20T00:32:18.151Z,83.97
2023-07-20T00:33:21.662Z,84.03
2023-07-20T00:35:29.537Z,84.03
2023-07-20T00:36:32.922Z,83.98
2023-07-20T00:38:40.899Z,84.13
2023-07-20T00:39:44.090Z,83.99
2023-07-20T00:41:51.931Z,84.10
2023-07-20T00:42:55.287Z,84.06
2023-07-20T00:45:04.241Z,84.02
2023-07-20T00:46:07.789Z,84.18
2023-07-20T00:48:17.319Z,84.30
2023-07-20T00:49:20.522Z,84.25
2023-07-20T00:51:28.610Z,83.98
2023-07-20T00:52:31.893Z,84.05
2023-07-20T00:54:40.328Z,83.71
2023-07-20T00:55:43.867Z,83.77
2023-07-20T00:57:52.038Z,83.66
2023-07-20T00:58:55.408Z,83.70
2023-07-20T01:00:18.203Z,83.76
2023-07-20T01:01:21.513Z,83.81
2023-07-20T01:03:30.663Z,83.96
2023-07-20T01:04:34.927Z,83.91
2023-07-20T01:06:43.042Z,83.93
2023-07-20T01:07:46.296Z,83.81
2023-07-20T01:09:55.049Z,83.89
2023-07-20T01:10:58.462Z,83.88
2023-07-20T01:13:06.401Z,84.03
2023-07-20T01:14:09.825Z,84.09
2023-07-20T01:16:18.065Z,84.09
2023-07-20T01:17:22.176Z,84.10
2023-07-20T01:19:30.490Z,84.25
2023-07-20T01:20:33.887Z,84.28
2023-07-20T01:22:42.375Z,84.25
2023-07-20T01:23:46.707Z,84.33
2023-07-20T01:25:55.158Z,84.06
2023-07-20T01:26:58.486Z,83.89
2023-07-20T01:29:06.714Z,83.88
2023-07-20T01:30:10.037Z,83.92
2023-07-20T01:32:18.763Z,84.05
2023-07-20T01:33:22.218Z,83.97
2023-07-20T01:35:30.329Z,84.29
2023-07-20T01:36:33.671Z,84.41
2023-07-20T01:38:41.676Z,84.75
2023-07-20T01:39:45.106Z,84.80
2023-07-20T01:41:53.615Z,84.55
2023-07-20T01:42:56.960Z,84.37
2023-07-20T01:45:04.977Z,84.46
2023-07-20T01:46:08.343Z,84.33
2023-07-20T01:48:17.827Z,84.17
2023-07-20T01:49:21.451Z,84.08
2023-07-20T01:51:29.706Z,84.12
2023-07-20T01:52:33.174Z,84.11
2023-07-20T01:54:42.042Z,83.92
2023-07-20T01:55:45.468Z,83.99
2023-07-20T01:57:54.064Z,84.01
2023-07-20T01:58:57.790Z,84.08
2023-07-20T02:00:18.136Z,84.07
2023-07-20T02:01:21.528Z,84.20
2023-07-20T02:03:30.764Z,84.09
2023-07-20T02:04:34.151Z,84.09
2023-07-20T02:06:42.914Z,84.21
2023-07-20T02:07:46.103Z,84.45
2023-07-20T02:09:53.925Z,84.48
2023-07-20T02:10:56.891Z,84.48
2023-07-20T02:13:04.692Z,84.40
2023-07-20T02:14:07.977Z,84.24
2023-07-20T02:16:15.858Z,84.07
2023-07-20T02:17:19.807Z,84.03
2023-07-20T02:19:28.422Z,84.08
2023-07-20T02:20:31.832Z,83.90
2023-07-20T02:22:39.764Z,83.92
2023-07-20T02:23:43.675Z,83.86
2023-07-20T02:25:52.038Z,83.77
2023-07-20T02:26:55.403Z,83.76
2023-07-20T02:29:03.633Z,83.82
2023-07-20T02:30:06.891Z,83.78
2023-07-20T02:32:15.692Z,83.76
2023-07-20T02:33:19.545Z,83.72
2023-07-20T02:35:27.765Z,83.73
2023-07-20T02:36:31.629Z,83.77
2023-07-20T02:38:39.710Z,83.84
2023-07-20T02:39:42.918Z,83.86
2023-07-20T02:41:50.932Z,83.89
2023-07-20T02:42:53.895Z,83.89
2023-07-20T02:45:01.812Z,83.93
2023-07-20T02:46:05.070Z,83.93
2023-07-20T02:48:15.020Z,83.91
2023-07-20T02:49:18.108Z,83.92
2023-07-20T02:51:26.142Z,83.96
2023-07-20T02:52:29.783Z,83.99
2023-07-20T02:54:37.414Z,84.09
2023-07-20T02:55:40.355Z,84.12
2023-07-20T02:57:48.371Z,84.22
2023-07-20T02:58:51.733Z,84.23
2023-07-20T03:00:18.035Z,84.24
2023-07-20T03:01:21.322Z,84.32
2023-07-20T03:03:30.867Z,84.48
2023-07-20T03:04:34.777Z,84.45
2023-07-20T03:06:43.427Z,84.63
2023-07-20T03:07:47.260Z,84.64
2023-07-20T03:09:55.737Z,84.68
2023-07-20T03:10:59.162Z,84.68
2023-07-20T03:13:07.136Z,84.84
2023-07-20T03:14:10.145Z,84.95
2023-07-20T03:16:17.569Z,85.07
2023-07-20T03:17:21.580Z,85.08
2023-07-20T03:19:30.313Z,85.12
2023-07-20T03:20:33.672Z,85.15
2023-07-20T03:22:41.913Z,85.15
2023-07-20T03:23:45.793Z,85.25
2023-07-20T03:25:54.145Z,85.23
2023-07-20T03:26:57.387Z,85.25
2023-07-20T03:29:05.397Z,85.18
2023-07-20T03:30:09.052Z,85.15
2023-07-20T03:32:17.543Z,85.18
2023-07-20T03:33:21.187Z,85.21
2023-07-20T03:35:29.327Z,85.34
2023-07-20T03:36:32.558Z,85.31
2023-07-20T03:38:40.636Z,85.30
2023-07-20T03:39:44.077Z,85.21
2023-07-20T03:41:52.320Z,85.22
2023-07-20T03:42:56.103Z,85.21
2023-07-20T03:45:04.070Z,85.17
2023-07-20T03:46:07.567Z,85.15
2023-07-20T03:48:16.641Z,85.20
2023-07-20T03:49:20.049Z,85.23
2023-07-20T03:51:28.455Z,85.29
2023-07-20T03:52:31.855Z,85.34
2023-07-20T03:54:39.668Z,85.44
2023-07-20T03:55:42.648Z,85.54
2023-07-20T03:57:50.569Z,85.64
2023-07-20T03:58:53.991Z,85.67
2023-07-20T04:00:18.045Z,85.71
2023-07-20T04:01:21.699Z,85.72
2023-07-20T04:03:31.009Z,85.72
2023-07-20T04:04:36.772Z,85.71
2023-07-20T04:05:48.635Z,85.72
2023-07-20T04:06:52.472Z,85.85
2023-07-20T04:09:01.042Z,85.87
2023-07-20T04:10:04.585Z,85.88
2023-07-20T04:12:13.183Z,85.93
2023-07-20T04:13:16.563Z,85.98
2023-07-20T04:15:25.192Z,86.05
2023-07-20T04:16:29.174Z,86.05
2023-07-20T04:18:38.651Z,86.24
2023-07-20T04:19:41.696Z,86.22
2023-07-20T04:21:50.461Z,86.25
2023-07-20T04:22:53.843Z,86.31
2023-07-20T04:25:02.701Z,86.34
2023-07-20T04:26:06.203Z,86.37
2023-07-20T04:28:17.040Z,86.40
2023-07-20T04:29:20.241Z,86.40
2023-07-20T04:31:28.735Z,86.53
2023-07-20T04:32:32.398Z,86.59
2023-07-20T04:34:42.445Z,86.73
2023-07-20T04:35:45.847Z,86.75
2023-07-20T04:37:56.053Z,86.85
2023-07-20T04:39:00.376Z,86.94
2023-07-20T04:41:28.511Z,87.13
2023-07-20T04:42:32.415Z,87.09
2023-07-20T04:44:40.815Z,87.22
2023-07-20T04:45:44.172Z,87.27
2023-07-20T04:47:56.944Z,87.30
2023-07-20T04:49:00.575Z,87.36
2023-07-20T04:51:08.759Z,87.29
2023-07-20T04:52:12.339Z,87.29
2023-07-20T04:54:34.924Z,87.30
2023-07-20T04:55:38.167Z,87.32
2023-07-20T04:57:49.356Z,87.33
2023-07-20T04:58:52.905Z,87.37
2023-07-20T05:00:18.262Z,87.40
2023-07-20T05:01:21.504Z,87.40
2023-07-20T05:03:31.120Z,87.41
2023-07-20T05:04:44.980Z,87.41
2023-07-20T05:06:54.290Z,87.41
2023-07-20T05:07:57.835Z,87.41
2023-07-20T05:10:06.900Z,87.50
2023-07-20T05:11:10.399Z,87.49
2023-07-20T05:13:18.939Z,87.52
2023-07-20T05:14:22.581Z,87.54
2023-07-20T05:16:31.656Z,87.62
2023-07-20T05:17:35.952Z,87.70
2023-07-20T05:19:45.139Z,87.71
2023-07-20T05:20:48.795Z,87.73
2023-07-20T05:22:57.429Z,87.85
2023-07-20T05:24:01.263Z,87.93
2023-07-20T05:26:12.164Z,88.03
2023-07-20T05:27:15.929Z,88.09
2023-07-20T05:29:24.757Z,88.27
2023-07-20T05:30:28.417Z,88.28
2023-07-20T05:32:39.309Z,88.27
2023-07-20T05:33:42.919Z,88.25
2023-07-20T05:35:51.176Z,88.30
2023-07-20T05:36:54.837Z,88.28
2023-07-20T05:39:06.221Z,88.34
2023-07-20T05:40:09.519Z,88.33
2023-07-20T05:42:17.820Z,88.11
2023-07-20T05:43:21.089Z,88.16
2023-07-20T05:45:32.387Z,87.81
2023-07-20T05:46:57.710Z,87.75
2023-07-20T05:49:07.528Z,87.39
2023-07-20T05:50:10.666Z,87.35
2023-07-20T05:52:22.685Z,86.91
2023-07-20T05:53:26.097Z,86.74
2023-07-20T05:55:34.302Z,86.16
2023-07-20T05:56:37.671Z,85.72
2023-07-20T05:58:46.423Z,85.33
2023-07-20T05:59:49.847Z,85.08
2023-07-20T06:00:21.055Z,84.92
2023-07-20T06:01:24.429Z,84.71
2023-07-20T06:03:33.186Z,83.81
2023-07-20T06:04:36.898Z,83.72
2023-07-20T06:06:45.113Z,83.09
2023-07-20T06:07:48.614Z,82.71
2023-07-20T06:09:57.426Z,81.93
2023-07-20T06:11:00.902Z,81.81
2023-07-20T06:13:08.984Z,81.69
2023-07-20T06:14:12.401Z,81.11
2023-07-20T06:16:21.933Z,80.58
2023-07-20T06:17:26.254Z,80.36
2023-07-20T06:19:38.028Z,80.07
2023-07-20T06:20:41.422Z,80.06
2023-07-20T06:22:49.702Z,78.93
2023-07-20T06:23:53.599Z,78.38
2023-07-20T06:26:01.908Z,77.37
2023-07-20T06:27:05.907Z,77.06
2023-07-20T06:29:16.849Z,76.53
2023-07-20T06:30:20.697Z,76.07
2023-07-20T06:32:29.370Z,75.83
2023-07-20T06:33:32.656Z,75.64
2023-07-20T06:35:41.195Z,76.12
2023-07-20T06:36:44.396Z,75.95
2023-07-20T06:43:48.525Z,74.21
2023-07-20T06:45:57.898Z,73.14
2023-07-20T06:47:02.259Z,72.95
2023-07-20T06:52:36.064Z,71.62
2023-07-20T06:53:40.480Z,71.23
2023-07-20T06:56:04.442Z,70.45
2023-07-20T06:57:19.120Z,70.44
2023-07-20T06:59:34.830Z,69.74
2023-07-20T07:01:22.052Z,69.69
2023-07-20T07:03:36.908Z,68.83
2023-07-20T07:04:43.544Z,68.94
2023-07-20T07:07:27.759Z,68.41
2023-07-20T07:08:34.047Z,68.51
2023-07-20T07:10:44.249Z,66.52
2023-07-20T07:11:47.901Z,66.23
2023-07-20T07:13:59.214Z,66.07
2023-07-20T07:15:02.900Z,66.33
2023-07-20T07:17:25.655Z,67.13
2023-07-20T07:18:32.644Z,66.91
2023-07-20T07:20:47.901Z,67.01
2023-07-20T07:22:00.289Z,66.58
2023-07-20T07:24:09.664Z,66.23
2023-07-20T07:25:21.445Z,65.75
2023-07-20T07:27:32.514Z,64.86
2023-07-20T07:28:36.258Z,64.29
2023-07-20T07:30:45.299Z,64.58
2023-07-20T07:31:49.149Z,64.76
2023-07-20T07:33:57.597Z,64.32
2023-07-20T07:35:01.172Z,64.69
2023-07-20T07:37:12.513Z,64.88
2023-07-20T07:39:38.528Z,65.06
2023-07-20T07:41:46.490Z,64.26
2023-07-20T07:42:49.859Z,63.78
2023-07-20T07:44:58.086Z,63.05
2023-07-20T07:46:01.437Z,63.38
2023-07-20T07:48:11.058Z,62.03
2023-07-20T07:49:14.637Z,61.79
2023-07-20T07:51:23.254Z,61.90
2023-07-20T07:52:26.724Z,61.03
2023-07-20T07:54:36.489Z,61.60
2023-07-20T07:55:39.827Z,61.84
2023-07-20T07:57:48.203Z,61.10
2023-07-20T07:58:51.747Z,61.36
2023-07-20T08:00:18.255Z,60.62
2023-07-20T08:01:21.853Z,61.00
2023-07-20T08:03:31.017Z,60.41
2023-07-20T08:04:35.862Z,60.68
2023-07-20T08:06:45.378Z,60.36
2023-07-20T08:07:48.814Z,61.12
2023-07-20T08:09:57.395Z,60.13
2023-07-20T08:11:07.342Z,59.95
2023-07-20T08:13:16.247Z,59.06
2023-07-20T08:14:19.813Z,58.75
2023-07-20T08:16:29.567Z,58.90
2023-07-20T08:17:34.411Z,59.01
2023-07-20T08:19:47.367Z,59.27
2023-07-20T08:20:51.102Z,59.17
2023-07-20T08:22:59.428Z,57.16
2023-07-20T08:24:02.649Z,56.87
2023-07-20T08:26:11.749Z,57.59
2023-07-20T08:27:15.935Z,57.55
2023-07-20T08:29:24.318Z,58.50
2023-07-20T08:30:27.999Z,57.02
2023-07-20T08:32:37.360Z,57.24
2023-07-20T08:33:40.868Z,56.93
2023-07-20T08:36:12.075Z,57.72
2023-07-20T08:37:17.343Z,56.98
2023-07-20T08:39:28.437Z,56.98
2023-07-20T08:40:31.805Z,58.46
2023-07-20T08:42:40.282Z,58.22
2023-07-20T08:43:44.728Z,56.92
2023-07-20T08:45:52.860Z,55.90
2023-07-20T08:46:56.613Z,55.51
2023-07-20T08:49:05.186Z,55.42
2023-07-20T08:50:08.624Z,56.11
2023-07-20T08:52:17.212Z,56.14
2023-07-20T08:53:20.673Z,55.93
2023-07-20T08:55:29.153Z,55.70
2023-07-20T08:56:32.619Z,56.31
2023-07-20T08:58:41.067Z,56.01
2023-07-20T08:59:44.518Z,56.08
2023-07-20T09:01:24.059Z,54.88
2023-07-20T09:03:33.880Z,55.67
2023-07-20T09:04:38.500Z,55.42
2023-07-20T09:06:51.599Z,54.10
2023-07-20T09:07:54.907Z,54.60
2023-07-20T09:10:03.249Z,54.87
2023-07-20T09:11:07.299Z,55.37
2023-07-20T09:13:16.820Z,55.65
2023-07-20T09:14:20.709Z,55.89
2023-07-20T09:16:31.019Z,55.48
2023-07-20T09:17:37.707Z,54.85
2023-07-20T09:19:49.254Z,53.48
2023-07-20T09:20:52.919Z,53.41
2023-07-20T09:23:01.565Z,52.69
2023-07-20T09:24:06.319Z,52.92
2023-07-20T09:26:18.591Z,53.51
2023-07-20T09:27:22.548Z,53.22
2023-07-20T09:29:36.558Z,53.77
2023-07-20T09:30:40.345Z,54.04
2023-07-20T09:34:07.836Z,53.22
2023-07-20T09:39:11.067Z,50.02
2023-07-20T09:41:04.383Z,49.62
2023-07-20T09:46:04.326Z,50.98
2023-07-20T09:51:23.368Z,50.60
2023-07-20T09:54:53.192Z,51.82
2023-07-20T09:55:56.716Z,50.38
2023-07-20T09:58:08.847Z,51.07
2023-07-20T09:59:12.261Z,52.83
2023-07-20T10:01:38.050Z,50.13
2023-07-20T10:03:48.072Z,51.25
2023-07-20T10:04:51.671Z,49.05
2023-07-20T10:07:00.372Z,48.59
2023-07-20T10:10:30.936Z,48.72
2023-07-20T10:11:35.018Z,49.78
2023-07-20T10:14:06.293Z,49.71
2023-07-20T10:15:09.674Z,48.93
2023-07-20T10:17:18.875Z,48.69
2023-07-20T10:18:22.276Z,49.51
2023-07-20T10:21:43.752Z,51.11
2023-07-20T10:22:57.720Z,50.90
2023-07-20T10:25:08.598Z,51.25
2023-07-20T10:26:12.727Z,49.62
2023-07-20T10:28:24.226Z,48.52
2023-07-20T10:29:27.411Z,49.87
2023-07-20T10:31:36.562Z,51.09
2023-07-20T10:32:44.519Z,51.21
2023-07-20T10:34:55.091Z,51.19
2023-07-20T10:35:58.757Z,50.81
2023-07-20T10:38:07.748Z,49.06
2023-07-20T10:39:10.994Z,47.85
2023-07-20T10:41:22.565Z,52.95
2023-07-20T10:42:26.862Z,51.79
2023-07-20T10:44:37.666Z,52.36
2023-07-20T10:45:41.025Z,50.53
2023-07-20T10:47:54.069Z,50.90
2023-07-20T10:48:57.725Z,50.70
2023-07-20T10:51:06.351Z,48.75
2023-07-20T10:52:09.716Z,48.51
2023-07-20T10:54:18.453Z,48.69
2023-07-20T10:55:21.952Z,49.60
2023-07-20T10:57:32.853Z,50.44
2023-07-20T10:58:38.289Z,50.56
2023-07-20T11:00:18.187Z,50.94
2023-07-20T11:01:23.520Z,49.94
2023-07-20T11:03:38.328Z,50.27
2023-07-20T11:04:47.007Z,49.49
2023-07-20T11:07:00.833Z,48.77
2023-07-20T11:08:05.934Z,48.86
2023-07-20T11:10:19.995Z,48.50
2023-07-20T11:11:24.284Z,47.43
2023-07-20T11:13:32.660Z,47.06
2023-07-20T11:14:35.988Z,45.26
2023-07-20T11:16:46.798Z,45.18
2023-07-20T11:17:50.480Z,45.24
2023-07-20T11:21:16.212Z,45.89
2023-07-20T11:23:37.487Z,45.54
2023-07-20T11:24:41.072Z,44.54
2023-07-20T11:26:49.556Z,44.06
2023-07-20T11:27:52.881Z,43.74
2023-07-20T11:30:22.786Z,45.85
2023-07-20T11:31:28.303Z,46.54
2023-07-20T11:33:41.211Z,47.87
2023-07-20T11:34:59.119Z,47.12
2023-07-20T11:38:30.712Z,46.61
2023-07-20T11:39:35.310Z,47.52
2023-07-20T11:41:44.800Z,49.65
2023-07-20T11:45:12.613Z,52.23
2023-07-20T11:46:15.982Z,52.38
2023-07-20T11:48:25.887Z,53.27
2023-07-20T11:49:29.525Z,53.69
2023-07-20T11:51:38.252Z,55.42
2023-07-20T11:52:41.417Z,55.62
2023-07-20T11:54:50.894Z,54.47
2023-07-20T11:55:55.298Z,53.68
2023-07-20T11:58:03.707Z,54.80
2023-07-20T11:59:07.244Z,54.98
2023-07-20T12:00:17.937Z,54.06
2023-07-20T12:01:24.019Z,53.89
2023-07-20T12:03:33.325Z,53.18
2023-07-20T12:04:37.415Z,52.63
2023-07-20T12:07:10.776Z,51.24
2023-07-20T12:08:14.181Z,49.69
2023-07-20T12:10:43.793Z,49.52
2023-07-20T12:11:47.200Z,49.88
2023-07-20T12:14:04.241Z,48.84
2023-07-20T12:15:16.174Z,49.13
2023-07-20T12:17:27.147Z,49.29
2023-07-20T12:18:35.714Z,49.05
2023-07-20T12:20:45.336Z,49.34
2023-07-20T12:21:48.764Z,49.84
2023-07-20T12:23:57.324Z,49.16
2023-07-20T12:25:00.754Z,49.26
2023-07-20T12:27:11.323Z,51.14
2023-07-20T12:28:17.250Z,51.67
2023-07-20T12:30:25.758Z,52.22
2023-07-20T12:31:29.249Z,52.25
2023-07-20T12:33:40.396Z,52.98
2023-07-20T12:34:43.730Z,52.81
2023-07-20T12:36:51.943Z,51.65
2023-07-20T12:37:59.097Z,50.74
2023-07-20T12:40:07.377Z,51.97
2023-07-20T12:41:11.282Z,52.17
2023-07-20T12:43:21.626Z,52.63
2023-07-20T12:44:25.835Z,53.00
2023-07-20T12:46:34.477Z,50.95
2023-07-20T12:47:38.215Z,51.12
2023-07-20T12:49:51.011Z,49.63
2023-07-20T12:50:54.491Z,50.37
2023-07-20T12:53:02.586Z,50.24
2023-07-20T12:54:06.116Z,50.81
2023-07-20T12:57:39.169Z,51.82
2023-07-20T12:59:47.675Z,52.93
2023-07-20T13:00:18.019Z,52.93
2023-07-20T13:01:21.222Z,52.65
2023-07-20T13:03:34.998Z,53.12
2023-07-20T13:05:11.926Z,52.99
2023-07-20T13:08:46.178Z,52.65
2023-07-20T13:09:49.830Z,53.19
2023-07-20T13:11:58.927Z,54.05
2023-07-20T13:13:02.358Z,53.36
2023-07-20T13:15:10.763Z,52.08
2023-07-20T13:16:14.193Z,52.30
2023-07-20T13:18:23.465Z,51.95
2023-07-20T13:19:28.680Z,52.33
2023-07-20T13:21:39.755Z,52.74
2023-07-20T13:22:43.033Z,51.17
2023-07-20T13:24:51.614Z,51.50
2023-07-20T13:25:56.978Z,51.93
2023-07-20T13:28:06.425Z,52.11
2023-07-20T13:29:11.031Z,51.34
2023-07-20T13:31:24.739Z,51.74
2023-07-20T13:35:15.786Z,50.73
2023-07-20T13:36:50.310Z,50.91
2023-07-20T13:39:00.866Z,51.26
2023-07-20T13:40:05.629Z,51.07
2023-07-20T13:42:19.756Z,51.08
2023-07-20T13:43:23.966Z,49.93
2023-07-20T13:45:33.728Z,49.72
2023-07-20T13:46:44.465Z,49.52
2023-07-20T13:51:45.877Z,47.84
2023-07-20T13:59:34.026Z,47.36
2023-07-20T14:01:38.441Z,47.64
2023-07-20T14:04:11.455Z,43.77
2023-07-20T14:07:47.433Z,43.41
2023-07-20T14:08:52.412Z,44.29
2023-07-20T14:12:36.021Z,44.67
2023-07-20T14:14:56.766Z,44.51
2023-07-20T14:16:01.792Z,41.57
2023-07-20T14:18:13.411Z,43.67
2023-07-20T14:19:19.952Z,43.90
2023-07-20T14:21:32.833Z,43.88
2023-07-20T14:22:38.212Z,43.70
2023-07-20T14:26:10.974Z,44.80
2023-07-20T14:28:25.819Z,45.62
2023-07-20T14:29:33.534Z,45.23
2023-07-20T14:31:45.239Z,44.15
2023-07-20T14:32:49.330Z,44.03
2023-07-20T14:35:00.529Z,42.77
2023-07-20T14:36:06.859Z,43.05
2023-07-20T14:38:26.894Z,42.32
2023-07-20T14:39:30.321Z,41.81
2023-07-20T14:41:40.125Z,42.06
2023-07-20T14:42:43.476Z,40.89
2023-07-20T14:44:52.810Z,40.74
2023-07-20T14:45:56.231Z,42.60
2023-07-20T14:48:31.476Z,42.26
2023-07-20T14:49:35.400Z,40.89
2023-07-20T14:51:51.773Z,42.11
2023-07-20T14:55:38.117Z,42.46
2023-07-20T14:56:41.608Z,42.91
2023-07-20T14:58:50.504Z,43.86
2023-07-20T14:59:53.997Z,44.40
2023-07-20T15:00:18.272Z,44.40
2023-07-20T15:01:21.776Z,43.60
2023-07-20T15:03:30.617Z,44.37
2023-07-20T15:04:35.333Z,45.19
2023-07-20T15:06:43.829Z,45.77
2023-07-20T15:07:46.939Z,45.82
2023-07-20T15:09:55.771Z,46.16
2023-07-20T15:10:59.633Z,46.57
2023-07-20T15:13:08.157Z,46.93
2023-07-20T15:14:11.415Z,46.71
2023-07-20T15:16:20.585Z,47.02
2023-07-20T15:17:27.733Z,47.57
2023-07-20T15:19:56.088Z,48.45
2023-07-20T15:20:59.770Z,48.81
2023-07-20T15:23:12.301Z,47.42
2023-07-20T15:24:15.853Z,46.82
2023-07-20T15:26:24.929Z,45.50
2023-07-20T15:27:28.746Z,45.57
2023-07-20T15:29:43.201Z,44.21
2023-07-20T15:30:50.790Z,43.64
2023-07-20T15:33:10.816Z,42.31
2023-07-20T15:34:17.087Z,42.39
2023-07-20T15:36:27.812Z,42.01
2023-07-20T15:37:32.310Z,42.99
2023-07-20T15:39:41.818Z,43.02
2023-07-20T15:40:45.442Z,43.33
2023-07-20T15:42:59.567Z,43.42
2023-07-20T15:44:19.602Z,43.64
2023-07-20T15:46:31.284Z,43.79
2023-07-20T15:47:37.311Z,44.08
2023-07-20T15:49:54.428Z,45.09
2023-07-20T15:51:03.478Z,44.67
2023-07-20T15:53:12.834Z,45.18
2023-07-20T15:54:16.353Z,45.65
2023-07-20T15:56:24.857Z,45.95
2023-07-20T15:57:28.649Z,46.26
2023-07-20T15:59:37.645Z,46.65
2023-07-20T16:01:21.913Z,46.78
2023-07-20T16:03:41.826Z,46.98
2023-07-20T16:04:45.430Z,47.52
2023-07-20T16:05:50.227Z,47.42
2023-07-20T16:06:54.537Z,47.29
2023-07-20T16:09:03.637Z,47.52
2023-07-20T16:10:08.374Z,47.97
2023-07-20T16:12:23.547Z,48.77
2023-07-20T16:13:29.021Z,49.11
2023-07-20T16:16:51.902Z,47.79
2023-07-20T16:17:55.910Z,48.30
2023-07-20T16:20:05.006Z,49.06
2023-07-20T16:21:08.803Z,49.45
2023-07-20T16:23:17.914Z,49.22
2023-07-20T16:24:24.232Z,50.12
2023-07-20T16:26:33.638Z,49.47
2023-07-20T16:27:37.287Z,49.33
2023-07-20T16:30:15.563Z,49.06
2023-07-20T16:31:19.525Z,48.74
2023-07-20T16:33:45.764Z,49.22
2023-07-20T16:35:17.721Z,49.46
2023-07-20T16:39:27.060Z,50.89
2023-07-20T16:41:02.426Z,50.22
2023-07-20T16:44:12.050Z,50.05
2023-07-20T16:45:15.549Z,49.99
2023-07-20T16:47:39.555Z,49.49
2023-07-20T16:49:01.334Z,49.78
2023-07-20T16:51:09.978Z,50.42
2023-07-20T16:52:14.895Z,50.16
2023-07-20T16:54:24.004Z,49.68
2023-07-20T16:55:27.469Z,50.11
2023-07-20T16:57:35.867Z,50.60
2023-07-20T16:58:39.427Z,50.54
2023-07-20T17:00:18.159Z,50.21
2023-07-20T17:01:22.146Z,50.54
2023-07-20T17:03:32.814Z,51.18
2023-07-20T17:04:37.290Z,51.05
2023-07-20T17:06:45.730Z,51.28
2023-07-20T17:07:53.533Z,51.24
2023-07-20T17:10:02.605Z,51.34
2023-07-20T17:11:06.294Z,51.44
2023-07-20T17:13:17.047Z,51.06
2023-07-20T17:14:20.866Z,51.26
2023-07-20T17:16:29.636Z,51.41
2023-07-20T17:17:33.739Z,51.15
2023-07-20T17:19:42.749Z,51.32
2023-07-20T17:21:44.469Z,51.69
2023-07-20T17:29:21.324Z,52.44
2023-07-20T17:30:25.996Z,52.80
2023-07-20T17:33:38.811Z,51.44
2023-07-20T17:35:46.952Z,51.78
2023-07-20T17:41:40.843Z,53.52
2023-07-20T17:43:47.073Z,53.38
2023-07-20T17:48:23.586Z,53.03
2023-07-20T17:50:33.114Z,53.06
2023-07-20T17:51:36.324Z,52.99
2023-07-20T17:53:45.018Z,53.61
2023-07-20T17:54:48.465Z,54.02
2023-07-20T17:56:56.535Z,54.06
2023-07-20T17:57:59.724Z,54.28
2023-07-20T18:01:31.467Z,54.10
2023-07-20T18:03:40.601Z,54.39
2023-07-20T18:04:46.769Z,54.43
2023-07-20T18:06:55.322Z,54.69
2023-07-20T18:07:58.840Z,54.65
2023-07-20T18:10:07.356Z,54.85
2023-07-20T18:11:11.083Z,54.85
2023-07-20T18:13:20.049Z,54.92
2023-07-20T18:14:23.731Z,54.86
2023-07-20T18:16:32.185Z,54.82
2023-07-20T18:17:35.805Z,54.67
2023-07-20T18:19:44.651Z,54.94
2023-07-20T18:20:48.272Z,54.80
2023-07-20T18:22:56.523Z,55.36
2023-07-20T18:23:59.561Z,55.53
2023-07-20T18:26:08.790Z,55.56
2023-07-20T18:27:14.994Z,55.64
2023-07-20T18:29:23.753Z,55.93
2023-07-20T18:30:27.335Z,55.79
2023-07-20T18:32:37.057Z,55.94
2023-07-20T18:33:41.212Z,55.94
2023-07-20T18:35:50.672Z,55.22
2023-07-20T18:36:54.345Z,55.45
2023-07-20T18:39:05.447Z,55.46
2023-07-20T18:40:09.046Z,55.52
2023-07-20T18:42:18.814Z,55.94
2023-07-20T18:43:22.145Z,55.69
2023-07-20T18:45:32.191Z,55.80
2023-07-20T18:46:36.465Z,55.89
2023-07-20T18:48:45.550Z,56.50
2023-07-20T18:49:49.235Z,56.48
2023-07-20T18:51:57.696Z,56.67
2023-07-20T18:53:01.624Z,57.17
2023-07-20T18:55:10.050Z,57.68
2023-07-20T18:56:13.364Z,57.31
2023-07-20T18:58:23.752Z,57.82
2023-07-20T18:59:27.463Z,57.72
2023-07-20T19:01:21.794Z,57.89
2023-07-20T19:03:32.345Z,58.43
2023-07-20T19:04:36.577Z,58.63
2023-07-20T19:06:45.033Z,58.83
2023-07-20T19:07:48.543Z,59.00
2023-07-20T19:09:57.885Z,58.43
2023-07-20T19:13:27.791Z,57.78
2023-07-20T19:14:31.642Z,57.78
2023-07-20T19:16:41.257Z,57.85
2023-07-20T19:17:44.635Z,57.57
2023-07-20T19:19:55.354Z,57.80
2023-07-20T19:20:58.676Z,58.04
2023-07-20T19:23:07.218Z,57.34
2023-07-20T19:24:10.777Z,57.22
2023-07-20T19:26:20.146Z,58.12
2023-07-20T19:27:24.151Z,57.56
2023-07-20T19:29:32.982Z,57.63
2023-07-20T19:30:36.730Z,57.82
2023-07-20T19:32:45.868Z,57.81
2023-07-20T19:33:49.852Z,57.78
2023-07-20T19:35:58.307Z,57.99
2023-07-20T19:37:01.977Z,58.16
2023-07-20T19:39:10.461Z,58.02
2023-07-20T19:40:13.795Z,57.94
2023-07-20T19:42:25.750Z,57.08
2023-07-20T19:43:29.443Z,56.50
2023-07-20T19:45:38.074Z,57.20
2023-07-20T19:46:41.987Z,57.14
2023-07-20T19:48:52.020Z,57.23
2023-07-20T19:49:55.693Z,57.18
2023-07-20T19:52:04.238Z,57.35
2023-07-20T19:56:16.638Z,57.28
2023-07-20T19:59:40.442Z,57.49
2023-07-20T20:05:08.418Z,57.84
2023-07-20T20:06:12.245Z,57.69
2023-07-20T20:08:21.773Z,57.62
2023-07-20T20:09:25.496Z,57.19
2023-07-20T20:12:05.877Z,56.97
2023-07-20T20:13:15.478Z,57.12
2023-07-20T20:15:24.405Z,57.04
2023-07-20T20:16:28.502Z,57.26
2023-07-20T20:18:38.136Z,57.71
2023-07-20T20:19:41.864Z,57.69
2023-07-20T20:21:50.870Z,58.06
2023-07-20T20:22:54.705Z,58.20
2023-07-20T20:25:03.810Z,57.92
2023-07-20T20:26:07.563Z,58.24
2023-07-20T20:28:17.007Z,58.54
2023-07-20T20:29:20.767Z,58.77
2023-07-20T20:31:29.991Z,58.67
2023-07-20T20:32:34.014Z,58.94
2023-07-20T20:34:43.061Z,59.01
2023-07-20T20:35:47.022Z,58.79
2023-07-20T20:37:56.473Z,59.04
2023-07-20T20:39:00.224Z,59.13
2023-07-20T20:41:11.341Z,59.09
2023-07-20T20:42:14.969Z,59.11
2023-07-20T20:44:24.619Z,59.20
2023-07-20T20:45:29.603Z,59.34
2023-07-20T20:47:39.675Z,59.54
2023-07-20T20:48:43.665Z,59.61
2023-07-20T20:50:52.492Z,59.69
2023-07-20T20:51:58.682Z,59.74
2023-07-20T20:54:08.012Z,60.02
2023-07-20T20:55:11.333Z,60.15
2023-07-20T20:57:24.558Z,60.65
2023-07-20T20:58:28.377Z,60.67
2023-07-20T21:01:21.799Z,60.91
2023-07-20T21:03:34.285Z,61.06
2023-07-20T21:04:38.342Z,61.07
2023-07-20T21:06:47.715Z,61.42
2023-07-20T21:07:51.443Z,61.63
2023-07-20T21:10:02.888Z,61.95
2023-07-20T21:11:06.385Z,62.01
2023-07-20T21:13:15.213Z,62.36
2023-07-20T21:14:19.305Z,62.38
2023-07-20T21:16:29.006Z,62.51
2023-07-20T21:17:33.479Z,62.55
2023-07-20T21:19:43.032Z,62.77
2023-07-20T21:20:46.739Z,62.82
2023-07-20T21:22:55.819Z,63.12
2023-07-20T21:23:59.315Z,63.25
2023-07-20T21:26:08.817Z,63.47
2023-07-20T21:27:13.000Z,63.47
2023-07-20T21:29:26.146Z,63.63
2023-07-20T21:30:29.765Z,63.73
2023-07-20T21:32:38.551Z,63.87
2023-07-20T21:33:42.710Z,63.92
2023-07-20T21:35:52.848Z,64.12
2023-07-20T21:36:56.472Z,64.25
2023-07-20T21:39:04.986Z,64.50
2023-07-20T21:40:08.713Z,64.61
2023-07-20T21:42:17.585Z,64.92
2023-07-20T21:43:21.386Z,64.89
2023-07-20T21:45:30.027Z,65.06
2023-07-20T21:46:34.842Z,65.15
2023-07-20T21:48:44.393Z,65.34
2023-07-20T21:49:48.218Z,65.42
2023-07-20T21:51:57.319Z,65.66
2023-07-20T21:53:01.068Z,65.62
2023-07-20T21:55:10.892Z,65.93
2023-07-20T21:56:14.623Z,65.95
2023-07-20T21:58:24.283Z,66.06
2023-07-20T21:59:28.163Z,65.75
2023-07-20T22:01:59.691Z,66.10
2023-07-20T22:04:11.842Z,66.41
2023-07-20T22:05:17.589Z,66.49
2023-07-20T22:07:26.631Z,66.65
2023-07-20T22:08:30.241Z,66.74
2023-07-20T22:10:39.153Z,66.98
2023-07-20T22:11:42.651Z,67.00
2023-07-20T22:13:51.469Z,67.12
2023-07-20T22:14:54.881Z,67.27
2023-07-20T22:17:04.054Z,67.51